Time;durP1;ratioP1;P1;durP2;ratioP2;P2;SDS_P1;SDS_P2;PMS_P1;PMS_P2;Temp;Humidity;BMP_temperature;BMP_pressure;BME280_temperature;BME280_humidity;BME280_pressure;Samples;Min_cycle;Max_cycle;Signal;HPM_P1;HPM_P2
2022/11/23 00:01:59;;;;;;;60.83;4.80;;;;;;;;;;5011895;28;20300;-75
2022/11/23 00:04:27;;;;;;;61.10;5.05;;;;;;;;;;5011808;28;20240;-75
2022/11/23 00:06:54;;;;;;;62.95;5.13;;;;;;;;;;5011809;28;20608;-75
2022/11/23 00:09:21;;;;;;;61.50;5.60;;;;;;;;;;5010779;28;20229;-75
2022/11/23 00:11:49;;;;;;;63.38;5.75;;;;;;;;;;5011897;28;20247;-75
2022/11/23 00:14:16;;;;;;;60.65;5.28;;;;;;;;;;5012123;28;20206;-75
2022/11/23 00:16:43;;;;;;;64.43;5.45;;;;;;;;;;5011741;28;20324;-75
2022/11/23 00:19:10;;;;;;;64.50;5.60;;;;;;;;;;5010861;28;20314;-75
2022/11/23 00:21:38;;;;;;;62.08;5.40;;;;;;;;;;5011562;28;20766;-75
2022/11/23 00:24:06;;;;;;;62.28;5.05;;;;;;;;;;5011746;28;20300;-75
2022/11/23 00:26:33;;;;;;;61.58;5.55;;;;;;;;;;5011942;28;20326;-75
2022/11/23 00:29:00;;;;;;;62.42;5.20;;;;;;;;;;5010868;28;20296;-75
2022/11/23 00:31:28;;;;;;;63.08;5.55;;;;;;;;;;5011568;28;20668;-75
2022/11/23 00:33:55;;;;;;;62.65;5.13;;;;;;;;;;5011621;28;20211;-75
2022/11/23 00:36:24;;;;;;;60.30;5.07;;;;;;;;;;5011306;28;20808;-75
2022/11/23 00:38:53;;;;;;;62.80;4.90;;;;;;;;;;5010774;28;20353;-75
2022/11/23 00:41:21;;;;;;;59.88;4.82;;;;;;;;;;5011325;28;20204;-75
2022/11/23 00:43:48;;;;;;;61.95;5.50;;;;;;;;;;5011532;28;20639;-75
2022/11/23 00:46:16;;;;;;;61.20;4.85;;;;;;;;;;5011867;28;20222;-75
2022/11/23 00:48:44;;;;;;;61.47;5.30;;;;;;;;;;5010316;28;20778;-75
2022/11/23 00:51:12;;;;;;;62.90;5.00;;;;;;;;;;5011568;28;20208;-75
2022/11/23 00:53:39;;;;;;;63.10;5.40;;;;;;;;;;5014666;28;20348;-75
2022/11/23 00:56:08;;;;;;;62.33;4.75;;;;;;;;;;5014674;28;20299;-75
2022/11/23 00:58:37;;;;;;;64.28;4.75;;;;;;;;;;5014308;28;20229;-75
2022/11/23 01:01:08;;;;;;;60.35;4.85;;;;;;;;;;5014616;28;20206;-75
2022/11/23 01:03:35;;;;;;;64.95;5.28;;;;;;;;;;5014949;28;20307;-75
2022/11/23 01:06:03;;;;;;;62.60;5.40;;;;;;;;;;5014561;28;20262;-75
2022/11/23 01:08:31;;;;;;;61.25;4.45;;;;;;;;;;5014241;28;20313;-75
2022/11/23 01:11:01;;;;;;;64.93;6.00;;;;;;;;;;5014303;28;20682;-75
2022/11/23 01:13:30;;;;;;;60.35;4.53;;;;;;;;;;5014499;28;20296;-75
2022/11/23 01:15:58;;;;;;;60.92;5.28;;;;;;;;;;5014264;28;20683;-75
2022/11/23 01:18:25;;;;;;;64.70;5.15;;;;;;;;;;5023220;28;20306;-75
2022/11/23 01:20:52;;;;;;;65.60;5.47;;;;;;;;;;5033428;28;20209;-75
2022/11/23 01:23:19;;;;;;;60.92;4.32;;;;;;;;;;5034035;28;20680;-75
2022/11/23 01:25:47;;;;;;;63.72;5.80;;;;;;;;;;5034015;28;20208;-75
2022/11/23 01:28:14;;;;;;;61.30;5.13;;;;;;;;;;5033697;28;20253;-75
2022/11/23 01:30:43;;;;;;;63.08;6.47;;;;;;;;;;5033540;28;20214;-75
2022/11/23 01:33:10;;;;;;;62.13;5.45;;;;;;;;;;5034037;28;20630;-75
2022/11/23 01:35:37;;;;;;;61.38;4.68;;;;;;;;;;5034115;28;20690;-75
2022/11/23 01:38:04;;;;;;;61.65;5.45;;;;;;;;;;5033419;28;20319;-75
2022/11/23 01:40:31;;;;;;;60.60;4.85;;;;;;;;;;5033072;28;20244;-75
2022/11/23 01:43:00;;;;;;;60.55;5.20;;;;;;;;;;5033616;28;20236;-75
2022/11/23 01:45:32;;;;;;;66.35;4.85;;;;;;;;;;5033623;28;20243;-75
2022/11/23 01:48:01;;;;;;;61.30;5.57;;;;;;;;;;5033627;28;20200;-75
2022/11/23 01:50:28;;;;;;;61.35;5.00;;;;;;;;;;5032773;28;20316;-75
2022/11/23 01:52:55;;;;;;;63.55;5.13;;;;;;;;;;5033530;28;20309;-75
2022/11/23 01:55:22;;;;;;;60.28;4.45;;;;;;;;;;5033479;28;20242;-75
2022/11/23 01:57:50;;;;;;;61.80;4.90;;;;;;;;;;5033482;28;20234;-75
2022/11/23 02:00:17;;;;;;;62.85;5.00;;;;;;;;;;5032560;28;20242;-75
2022/11/23 02:02:46;;;;;;;62.25;4.78;;;;;;;;;;5033185;28;20253;-75
2022/11/23 02:05:15;;;;;;;62.15;5.43;;;;;;;;;;5033371;28;20218;-75
2022/11/23 02:07:42;;;;;;;62.05;5.15;;;;;;;;;;5033245;28;20204;-75
2022/11/23 02:10:10;;;;;;;60.80;5.00;;;;;;;;;;5032604;28;20237;-75
2022/11/23 02:12:37;;;;;;;60.75;5.03;;;;;;;;;;5033098;28;20213;-75
2022/11/23 02:15:05;;;;;;;61.70;4.80;;;;;;;;;;5033356;28;20363;-75
2022/11/23 02:17:33;;;;;;;60.80;5.10;;;;;;;;;;5033191;28;20316;-75
2022/11/23 02:20:04;;;;;;;60.65;4.35;;;;;;;;;;5032247;28;20320;-75
2022/11/23 02:22:38;;;;;;;60.17;4.75;;;;;;;;;;5032910;28;20311;-75
2022/11/23 02:25:08;;;;;;;60.13;4.60;;;;;;;;;;5015449;28;20295;-75
2022/11/23 02:27:36;;;;;;;63.15;5.10;;;;;;;;;;5013245;28;20294;-75
2022/11/23 02:30:04;;;;;;;59.75;4.80;;;;;;;;;;5012399;28;20234;-75
2022/11/23 02:32:32;;;;;;;63.22;6.00;;;;;;;;;;5012989;28;20239;-75
2022/11/23 02:34:59;;;;;;;61.35;5.22;;;;;;;;;;5012835;28;20238;-75
2022/11/23 02:37:26;;;;;;;65.82;4.78;;;;;;;;;;5013198;28;20224;-75
2022/11/23 02:39:54;;;;;;;62.05;4.88;;;;;;;;;;5012685;28;20317;-75
2022/11/23 02:42:21;;;;;;;62.55;6.93;;;;;;;;;;5013311;28;20295;-75
2022/11/23 02:44:54;;;;;;;63.22;5.80;;;;;;;;;;5011111;28;20237;-75
2022/11/23 02:47:21;;;;;;;62.25;5.55;;;;;;;;;;5013126;28;20296;-75
2022/11/23 02:49:49;;;;;;;62.00;5.50;;;;;;;;;;5012146;28;20332;-75
2022/11/23 02:52:16;;;;;;;60.65;5.10;;;;;;;;;;5013266;28;20206;-75
2022/11/23 02:54:44;;;;;;;61.50;4.68;;;;;;;;;;5012945;28;20296;-75
2022/11/23 02:57:11;;;;;;;59.45;5.15;;;;;;;;;;5012937;28;20234;-75
2022/11/23 02:59:38;;;;;;;62.95;5.15;;;;;;;;;;5011941;28;20311;-75
2022/11/23 03:02:07;;;;;;;60.42;5.18;;;;;;;;;;5013052;28;20214;-75
2022/11/23 03:04:34;;;;;;;63.55;4.57;;;;;;;;;;5012737;28;20304;-75
2022/11/23 03:07:01;;;;;;;68.13;4.82;;;;;;;;;;5012847;28;20237;-75
2022/11/23 03:09:28;;;;;;;60.72;4.80;;;;;;;;;;5011885;28;20667;-75
2022/11/23 03:11:55;;;;;;;67.15;5.70;;;;;;;;;;5012777;28;20681;-75
2022/11/23 03:14:23;;;;;;;62.33;4.78;;;;;;;;;;5012630;28;20305;-75
2022/11/23 03:16:50;;;;;;;60.97;5.63;;;;;;;;;;5013071;28;20252;-75
2022/11/23 03:19:18;;;;;;;61.55;5.25;;;;;;;;;;5011558;28;20668;-75
2022/11/23 03:21:46;;;;;;;61.13;5.07;;;;;;;;;;5012484;28;20248;-75
2022/11/23 03:24:13;;;;;;;62.15;5.40;;;;;;;;;;5012325;28;20493;-75
2022/11/23 03:26:40;;;;;;;61.75;4.70;;;;;;;;;;5012128;28;20239;-75
2022/11/23 03:29:07;;;;;;;61.97;5.85;;;;;;;;;;5011522;28;20766;-75
2022/11/23 03:31:34;;;;;;;64.75;5.65;;;;;;;;;;5012154;28;20715;-75
2022/11/23 03:34:01;;;;;;;63.58;5.57;;;;;;;;;;5012189;28;20296;-75
2022/11/23 03:36:30;;;;;;;62.22;5.68;;;;;;;;;;5012054;28;20675;-75
2022/11/23 03:38:57;;;;;;;59.78;5.00;;;;;;;;;;5011082;28;20282;-75
2022/11/23 03:41:24;;;;;;;63.28;5.88;;;;;;;;;;5012024;28;20730;-75
2022/11/23 03:43:51;;;;;;;63.90;5.10;;;;;;;;;;5012228;28;20857;-75
2022/11/23 03:46:18;;;;;;;62.35;5.38;;;;;;;;;;5011914;28;20245;-75
2022/11/23 03:48:45;;;;;;;61.45;5.43;;;;;;;;;;5011282;28;20266;-75
2022/11/23 03:51:13;;;;;;;60.75;5.13;;;;;;;;;;5012067;28;20297;-75
2022/11/23 03:53:41;;;;;;;61.83;6.20;;;;;;;;;;5011760;28;20239;-75
2022/11/23 03:56:08;;;;;;;60.97;5.30;;;;;;;;;;5011845;28;20213;-75
2022/11/23 03:58:35;;;;;;;63.75;5.45;;;;;;;;;;5010853;28;20233;-75
2022/11/23 04:01:03;;;;;;;66.80;5.38;;;;;;;;;;5011949;28;20298;-75
2022/11/23 04:03:30;;;;;;;63.05;5.90;;;;;;;;;;5011810;28;20299;-75
2022/11/23 04:05:57;;;;;;;64.80;5.65;;;;;;;;;;5011851;28;20300;-75
2022/11/23 04:08:24;;;;;;;66.20;5.40;;;;;;;;;;5011796;28;20262;-75
2022/11/23 04:10:52;;;;;;;63.67;5.07;;;;;;;;;;5010927;28;20706;-75
2022/11/23 04:13:20;;;;;;;66.13;5.63;;;;;;;;;;5011911;28;20313;-75
2022/11/23 04:15:47;;;;;;;62.20;5.10;;;;;;;;;;5011791;28;20209;-75
2022/11/23 04:18:14;;;;;;;62.03;5.85;;;;;;;;;;5011366;28;20737;-75
2022/11/23 04:20:41;;;;;;;61.50;5.15;;;;;;;;;;5010842;28;20249;-75
2022/11/23 04:23:08;;;;;;;66.47;6.82;;;;;;;;;;5011576;28;20297;-75
2022/11/23 04:25:35;;;;;;;62.00;5.32;;;;;;;;;;5011771;28;20214;-75
2022/11/23 04:28:04;;;;;;;61.60;4.95;;;;;;;;;;5014095;28;20245;-75
2022/11/23 04:30:31;;;;;;;60.95;4.60;;;;;;;;;;5014685;28;20309;-75
2022/11/23 04:32:58;;;;;;;62.13;5.80;;;;;;;;;;5015163;28;20696;-75
2022/11/23 04:35:25;;;;;;;63.03;6.15;;;;;;;;;;5015036;28;20215;-75
2022/11/23 04:37:53;;;;;;;61.08;5.72;;;;;;;;;;5015029;28;20265;-75
2022/11/23 04:40:20;;;;;;;63.72;5.03;;;;;;;;;;5014316;28;20248;-75
2022/11/23 04:42:47;;;;;;;63.85;5.07;;;;;;;;;;5015219;28;20245;-75
2022/11/23 04:45:15;;;;;;;60.03;4.80;;;;;;;;;;5015028;28;20304;-75
2022/11/23 04:47:43;;;;;;;60.45;4.70;;;;;;;;;;5014900;28;20598;-75
2022/11/23 04:50:10;;;;;;;62.03;5.40;;;;;;;;;;5013940;28;20746;-75
2022/11/23 04:52:37;;;;;;;61.00;5.55;;;;;;;;;;5015068;28;20618;-75
2022/11/23 04:55:04;;;;;;;69.78;5.15;;;;;;;;;;5014777;28;20761;-75
2022/11/23 04:57:32;;;;;;;62.85;6.55;;;;;;;;;;5014811;28;20604;-75
2022/11/23 04:59:59;;;;;;;66.55;5.57;;;;;;;;;;5013913;28;20316;-75
2022/11/23 05:02:27;;;;;;;61.35;5.45;;;;;;;;;;5014617;28;20209;-75
2022/11/23 05:04:54;;;;;;;64.13;5.88;;;;;;;;;;5014746;28;20714;-75
2022/11/23 05:07:22;;;;;;;62.97;6.30;;;;;;;;;;5014577;28;20681;-75
2022/11/23 05:09:49;;;;;;;64.30;5.88;;;;;;;;;;5013763;28;20236;-75
2022/11/23 05:12:16;;;;;;;62.40;5.88;;;;;;;;;;5014629;28;20244;-75
2022/11/23 05:14:43;;;;;;;61.60;6.00;;;;;;;;;;5014457;28;20216;-75
2022/11/23 05:17:10;;;;;;;65.72;5.97;;;;;;;;;;5014479;28;20299;-75
2022/11/23 05:19:39;;;;;;;63.58;6.40;;;;;;;;;;5013651;28;20236;-75
2022/11/23 05:22:06;;;;;;;67.47;6.10;;;;;;;;;;5014330;28;20241;-75
2022/11/23 05:24:33;;;;;;;61.88;5.28;;;;;;;;;;5014389;28;20275;-75
2022/11/23 05:27:00;;;;;;;63.90;6.07;;;;;;;;;;5014335;28;20252;-75
2022/11/23 05:29:28;;;;;;;62.22;5.28;;;;;;;;;;5013266;28;20659;-75
2022/11/23 05:31:55;;;;;;;65.35;6.60;;;;;;;;;;5014077;28;20210;-75
2022/11/23 05:34:22;;;;;;;65.88;5.90;;;;;;;;;;5014120;28;20213;-75
2022/11/23 05:36:50;;;;;;;63.10;5.97;;;;;;;;;;5014175;28;20251;-75
2022/11/23 05:39:18;;;;;;;63.80;5.40;;;;;;;;;;5012710;28;20254;-75
2022/11/23 05:41:45;;;;;;;64.05;5.90;;;;;;;;;;5014468;28;20636;-75
2022/11/23 05:44:12;;;;;;;61.92;6.22;;;;;;;;;;5013811;28;20240;-75
2022/11/23 05:46:39;;;;;;;65.10;7.28;;;;;;;;;;5014001;28;20296;-75
2022/11/23 05:49:06;;;;;;;61.78;5.75;;;;;;;;;;5013003;28;20322;-75
2022/11/23 05:51:33;;;;;;;62.95;5.45;;;;;;;;;;5013848;28;20304;-75
2022/11/23 05:54:03;;;;;;;61.60;5.30;;;;;;;;;;5013831;28;20241;-75
2022/11/23 05:56:30;;;;;;;62.53;6.57;;;;;;;;;;5013575;28;20293;-75
2022/11/23 05:58:57;;;;;;;61.30;6.10;;;;;;;;;;5013189;28;20235;-75
2022/11/23 06:01:24;;;;;;;63.65;6.22;;;;;;;;;;5013751;28;20741;-75
2022/11/23 06:03:51;;;;;;;63.30;5.78;;;;;;;;;;5013934;28;20207;-75
2022/11/23 06:06:19;;;;;;;67.40;6.30;;;;;;;;;;5013864;28;20214;-75
2022/11/23 06:08:46;;;;;;;61.08;5.53;;;;;;;;;;5012834;28;20227;-75
2022/11/23 06:11:15;;;;;;;62.28;6.32;;;;;;;;;;5013340;28;20316;-75
2022/11/23 06:13:47;;;;;;;63.40;6.45;;;;;;;;;;5013558;28;20299;-75
2022/11/23 06:16:14;;;;;;;66.30;6.40;;;;;;;;;;5013423;28;20218;-75
2022/11/23 06:18:42;;;;;;;63.50;8.07;;;;;;;;;;5012555;28;20232;-75
2022/11/23 06:21:09;;;;;;;61.20;6.30;;;;;;;;;;5013240;28;20672;-75
2022/11/23 06:23:36;;;;;;;67.50;8.02;;;;;;;;;;5013083;28;20208;-75
2022/11/23 06:26:04;;;;;;;68.22;6.47;;;;;;;;;;5013430;28;20213;-75
2022/11/23 06:28:34;;;;;;;64.57;6.65;;;;;;;;;;5012851;28;20260;-75
2022/11/23 06:31:02;;;;;;;65.22;6.95;;;;;;;;;;5013190;28;20217;-75
2022/11/23 06:33:29;;;;;;;66.10;6.63;;;;;;;;;;5013090;28;20303;-75
2022/11/23 06:35:57;;;;;;;63.95;6.82;;;;;;;;;;5012002;28;20636;-75
2022/11/23 06:38:24;;;;;;;64.75;6.68;;;;;;;;;;5008411;28;20233;-75
2022/11/23 06:40:51;;;;;;;64.45;6.60;;;;;;;;;;5012129;28;20311;-75
2022/11/23 06:43:19;;;;;;;64.40;7.35;;;;;;;;;;5012973;28;20215;-75
2022/11/23 06:45:47;;;;;;;64.13;7.30;;;;;;;;;;5012810;28;20239;-75
2022/11/23 06:48:14;;;;;;;64.22;7.63;;;;;;;;;;5012474;28;20224;-74
2022/11/23 06:50:42;;;;;;;70.28;7.88;;;;;;;;;;5011161;28;20204;-75
2022/11/23 06:53:11;;;;;;;64.80;7.68;;;;;;;;;;5012927;28;20296;-75
2022/11/23 06:55:38;;;;;;;65.25;6.93;;;;;;;;;;5012645;28;20221;-75
2022/11/23 06:58:05;;;;;;;66.78;6.93;;;;;;;;;;5012492;28;20229;-75
2022/11/23 07:00:33;;;;;;;65.05;7.20;;;;;;;;;;5011881;28;20212;-75
2022/11/23 07:03:02;;;;;;;67.57;7.70;;;;;;;;;;5012458;28;20760;-75
2022/11/23 07:05:29;;;;;;;63.22;7.38;;;;;;;;;;5012366;28;20211;-75
2022/11/23 07:07:56;;;;;;;65.47;7.07;;;;;;;;;;5012546;28;20692;-75
2022/11/23 07:10:24;;;;;;;65.47;6.78;;;;;;;;;;5011683;28;20734;-74
2022/11/23 07:12:51;;;;;;;65.43;7.72;;;;;;;;;;5012460;28;20669;-75
2022/11/23 07:15:19;;;;;;;66.45;7.25;;;;;;;;;;5012374;28;20255;-75
2022/11/23 07:17:46;;;;;;;64.10;7.32;;;;;;;;;;5012042;28;20207;-75
2022/11/23 07:20:14;;;;;;;65.65;7.72;;;;;;;;;;5011705;28;20207;-75
2022/11/23 07:22:42;;;;;;;70.70;6.50;;;;;;;;;;5012429;28;20639;-75
2022/11/23 07:25:10;;;;;;;65.75;7.13;;;;;;;;;;5012176;28;20239;-75
2022/11/23 07:27:37;;;;;;;63.33;7.25;;;;;;;;;;5012306;28;20291;-75
2022/11/23 07:30:05;;;;;;;63.00;6.85;;;;;;;;;;5011402;28;20229;-75
2022/11/23 07:32:32;;;;;;;62.95;7.28;;;;;;;;;;5012009;28;20215;-75
2022/11/23 07:34:59;;;;;;;63.40;7.45;;;;;;;;;;5012234;28;20254;-75
2022/11/23 07:37:27;;;;;;;63.63;7.88;;;;;;;;;;5012160;28;20579;-75
2022/11/23 07:39:55;;;;;;;63.45;8.45;;;;;;;;;;5011248;28;20261;-75
2022/11/23 07:42:22;;;;;;;69.10;7.55;;;;;;;;;;5011953;28;20308;-75
2022/11/23 07:44:49;;;;;;;65.57;7.55;;;;;;;;;;5015967;28;20209;-75
2022/11/23 07:47:16;;;;;;;64.90;8.10;;;;;;;;;;5031925;28;20369;-75
2022/11/23 07:49:43;;;;;;;68.60;8.05;;;;;;;;;;5030676;28;20324;-75
2022/11/23 07:52:11;;;;;;;64.63;7.15;;;;;;;;;;5031698;28;20297;-75
2022/11/23 07:54:39;;;;;;;62.78;7.50;;;;;;;;;;5031642;28;20255;-75
2022/11/23 07:57:06;;;;;;;67.28;7.30;;;;;;;;;;5031621;28;20254;-75
2022/11/23 07:59:33;;;;;;;66.45;7.25;;;;;;;;;;5030494;28;20320;-76
2022/11/23 08:02:01;;;;;;;66.00;6.93;;;;;;;;;;5034380;28;20208;-75
2022/11/23 08:04:28;;;;;;;64.63;7.03;;;;;;;;;;5035719;28;20293;-75
2022/11/23 08:06:56;;;;;;;64.15;8.10;;;;;;;;;;5035647;28;20700;-75
2022/11/23 08:09:24;;;;;;;65.45;6.95;;;;;;;;;;5034680;28;20226;-75
2022/11/23 08:11:52;;;;;;;63.55;7.28;;;;;;;;;;5035332;28;20232;-75
2022/11/23 08:14:19;;;;;;;65.10;7.55;;;;;;;;;;5035555;28;20236;-76
2022/11/23 08:16:49;;;;;;;63.20;6.80;;;;;;;;;;5035469;28;20212;-75
2022/11/23 08:19:16;;;;;;;63.47;7.00;;;;;;;;;;5034404;28;20229;-75
2022/11/23 08:21:44;;;;;;;67.63;7.35;;;;;;;;;;5035289;28;20297;-75
2022/11/23 08:24:11;;;;;;;64.90;7.70;;;;;;;;;;5035182;28;20213;-75
2022/11/23 08:26:39;;;;;;;66.68;7.70;;;;;;;;;;5035012;28;20242;-75
2022/11/23 08:29:07;;;;;;;65.43;7.18;;;;;;;;;;5034621;28;20228;-75
2022/11/23 08:31:34;;;;;;;65.97;7.90;;;;;;;;;;5035227;28;20740;-75
2022/11/23 08:34:01;;;;;;;64.40;6.43;;;;;;;;;;5035011;28;20694;-75
2022/11/23 08:36:29;;;;;;;65.47;6.75;;;;;;;;;;5035014;28;20212;-75
2022/11/23 08:38:56;;;;;;;68.53;7.40;;;;;;;;;;5033968;28;20330;-75
2022/11/23 08:41:23;;;;;;;65.28;6.85;;;;;;;;;;5035113;28;20304;-75
2022/11/23 08:43:50;;;;;;;63.05;7.90;;;;;;;;;;5034932;28;20232;-75
2022/11/23 08:46:19;;;;;;;62.90;6.78;;;;;;;;;;5034950;28;20301;-75
2022/11/23 08:48:46;;;;;;;60.72;5.07;;;;;;;;;;5033886;28;20312;-75
2022/11/23 08:51:13;;;;;;;61.67;5.22;;;;;;;;;;5034551;28;20245;-76
2022/11/23 08:53:40;;;;;;;61.63;5.00;;;;;;;;;;5034569;28;20210;-75
2022/11/23 08:56:08;;;;;;;61.27;5.00;;;;;;;;;;5034830;28;20273;-75
2022/11/23 08:58:35;;;;;;;60.40;4.70;;;;;;;;;;5033750;28;20495;-75
2022/11/23 09:01:02;;;;;;;67.80;4.50;;;;;;;;;;5034575;28;20547;-75
2022/11/23 09:03:31;;;;;;;60.63;4.40;;;;;;;;;;5034473;28;20495;-75
2022/11/23 09:06:00;;;;;;;62.90;5.10;;;;;;;;;;5034357;28;20475;-75
2022/11/23 09:08:27;;;;;;;61.75;4.90;;;;;;;;;;5034229;28;20501;-75
2022/11/23 09:10:54;;;;;;;63.17;4.70;;;;;;;;;;5034077;28;20234;-75
2022/11/23 09:13:21;;;;;;;62.57;4.27;;;;;;;;;;5033625;28;20456;-75
2022/11/23 09:15:48;;;;;;;64.17;4.20;;;;;;;;;;5034338;28;20495;-75
2022/11/23 09:18:16;;;;;;;58.90;4.00;;;;;;;;;;5034081;28;20501;-76
2022/11/23 09:20:44;;;;;;;59.80;3.73;;;;;;;;;;5035135;28;20453;-75
2022/11/23 09:23:11;;;;;;;60.07;3.90;;;;;;;;;;5034346;28;20531;-76
2022/11/23 09:25:38;;;;;;;73.70;4.63;;;;;;;;;;5034341;28;20882;-76
2022/11/23 09:28:05;;;;;;;63.90;4.50;;;;;;;;;;5033895;28;20972;-76
2022/11/23 09:30:33;;;;;;;61.70;4.10;;;;;;;;;;5033311;28;20532;-76
2022/11/23 09:33:00;;;;;;;60.40;3.80;;;;;;;;;;5033924;28;20497;-75
2022/11/23 09:35:27;;;;;;;60.20;4.17;;;;;;;;;;5033786;28;20536;-75
2022/11/23 09:37:59;;;;;;;61.27;3.93;;;;;;;;;;5033932;28;20909;-76
2022/11/23 09:40:29;;;;;;;64.23;4.23;;;;;;;;;;5032963;28;20567;-76
2022/11/23 09:43:03;;;;;;;62.60;4.00;;;;;;;;;;5033777;28;20984;-76
2022/11/23 09:45:33;;;;;;;61.63;3.97;;;;;;;;;;5033887;28;20476;-76
2022/11/23 09:48:15;;;;;;;61.10;4.20;;;;;;;;;;5033491;28;20540;-76
2022/11/23 09:50:47;;;;;;;61.90;4.20;;;;;;;;;;5025598;28;20448;-76
2022/11/23 09:53:16;;;;;;;61.00;3.83;;;;;;;;;;5013727;28;20446;-76
2022/11/23 09:55:45;;;;;;;60.10;4.00;;;;;;;;;;5013637;28;20951;-76
2022/11/23 09:58:14;;;;;;;60.33;3.90;;;;;;;;;;5013508;28;20818;-76
2022/11/23 10:00:44;;;;;;;59.37;4.07;;;;;;;;;;5012967;28;20580;-76
2022/11/23 10:03:14;;;;;;;64.43;5.10;;;;;;;;;;5013882;28;20537;-76
2022/11/23 10:05:45;;;;;;;61.17;3.93;;;;;;;;;;5013791;28;20457;-76
2022/11/23 10:08:18;;;;;;;59.37;3.97;;;;;;;;;;5013478;28;20553;-77
2022/11/23 10:10:51;;;;;;;63.30;4.80;;;;;;;;;;5012913;28;20536;-76
2022/11/23 10:13:28;;;;;;;65.43;4.70;;;;;;;;;;5013945;28;20482;-76
2022/11/23 10:16:03;;;;;;;60.87;4.40;;;;;;;;;;5013593;28;20448;-76
2022/11/23 10:18:36;;;;;;;62.97;5.07;;;;;;;;;;5013187;28;20556;-76
2022/11/23 10:21:07;;;;;;;59.70;3.80;;;;;;;;;;5013356;28;20450;-76
2022/11/23 10:23:41;;;;;;;60.07;4.10;;;;;;;;;;5013516;28;20480;-76
2022/11/23 10:26:11;;;;;;;61.43;3.87;;;;;;;;;;5013465;28;20496;-76
2022/11/23 10:28:38;;;;;;;61.60;4.17;;;;;;;;;;5012537;28;20474;-76
2022/11/23 10:31:08;;;;;;;63.33;4.43;;;;;;;;;;5013596;28;20878;-76
2022/11/23 10:33:38;;;;;;;61.23;3.60;;;;;;;;;;5013015;28;20454;-76
2022/11/23 10:36:06;;;;;;;60.40;3.90;;;;;;;;;;5013402;28;20861;-76
2022/11/23 10:38:33;;;;;;;61.15;3.80;;;;;;;;;;5012526;28;20474;-76
2022/11/23 10:41:02;;;;;;;62.90;3.90;;;;;;;;;;5013079;28;20540;-76
2022/11/23 10:43:33;;;;;;;59.60;3.60;;;;;;;;;;5012912;28;20530;-76
2022/11/23 10:46:15;;;;;;;62.43;4.10;;;;;;;;;;5012784;28;20964;-76
2022/11/23 10:48:43;;;;;;;59.20;3.63;;;;;;;;;;5011784;28;20573;-76
2022/11/23 10:51:17;;;;;;;64.77;4.17;;;;;;;;;;5012892;28;20458;-76
2022/11/23 10:53:44;;;;;;;59.47;4.20;;;;;;;;;;5013245;28;20452;-76
2022/11/23 10:56:13;;;;;;;61.40;4.10;;;;;;;;;;5012686;28;21073;-76
2022/11/23 10:58:44;;;;;;;60.57;3.50;;;;;;;;;;5011777;28;20473;-76
2022/11/23 11:01:13;;;;;;;60.90;3.93;;;;;;;;;;5012645;28;20481;-76
2022/11/23 11:03:41;;;;;;;60.03;3.30;;;;;;;;;;5012534;28;20532;-76
2022/11/23 11:06:08;;;;;;;58.50;3.37;;;;;;;;;;5012520;28;20993;-76
2022/11/23 11:08:36;;;;;;;58.83;3.90;;;;;;;;;;5011723;28;20536;-76
2022/11/23 11:11:05;;;;;;;62.70;4.20;;;;;;;;;;5012426;28;20804;-76
2022/11/23 11:13:33;;;;;;;60.70;4.27;;;;;;;;;;5012685;28;20450;-76
2022/11/23 11:16:02;;;;;;;59.17;3.83;;;;;;;;;;5012544;28;20477;-76
2022/11/23 11:18:30;;;;;;;61.87;4.73;;;;;;;;;;5012015;28;20502;-76
2022/11/23 11:20:59;;;;;;;60.97;3.70;;;;;;;;;;5011970;28;20548;-76
2022/11/23 11:23:26;;;;;;;60.37;4.00;;;;;;;;;;5012267;28;20985;-76
2022/11/23 11:26:03;;;;;;;62.60;4.33;;;;;;;;;;5012441;28;20557;-76
2022/11/23 11:28:34;;;;;;;62.40;4.03;;;;;;;;;;5011944;28;20834;-76
2022/11/23 11:31:11;;;;;;;60.27;3.73;;;;;;;;;;5012527;28;20545;-76
2022/11/23 11:33:42;;;;;;;59.50;4.17;;;;;;;;;;5012221;28;20528;-76
2022/11/23 11:36:13;;;;;;;59.90;3.30;;;;;;;;;;5011687;28;20533;-76
2022/11/23 11:38:41;;;;;;;64.15;4.30;;;;;;;;;;5010653;28;20931;-76
2022/11/23 11:41:10;;;;;;;63.47;3.77;;;;;;;;;;5012150;28;20237;-76
2022/11/23 11:43:39;;;;;;;59.70;4.13;;;;;;;;;;5012151;28;20496;-76
2022/11/23 11:46:11;;;;;;;59.60;3.90;;;;;;;;;;5012102;28;20457;-77
2022/11/23 11:48:40;;;;;;;62.60;4.03;;;;;;;;;;5010976;28;20568;-76
2022/11/23 11:51:09;;;;;;;61.00;4.60;;;;;;;;;;5012139;28;20541;-77
2022/11/23 11:53:38;;;;;;;59.23;4.20;;;;;;;;;;5012085;28;20450;-77
2022/11/23 11:56:12;;;;;;;59.10;4.10;;;;;;;;;;5012166;28;20446;-77
2022/11/23 11:58:41;;;;;;;59.30;3.80;;;;;;;;;;5011071;28;20986;-76
2022/11/23 12:01:26;;;;;;;62.77;4.40;;;;;;;;;;5011635;28;20478;-76
2022/11/23 12:03:57;;;;;;;60.20;3.87;;;;;;;;;;5011822;28;20544;-76
2022/11/23 12:06:28;;;;;;;58.90;3.60;;;;;;;;;;5012012;28;20536;-76
2022/11/23 12:08:58;;;;;;;62.60;4.20;;;;;;;;;;5011017;28;20560;-77
2022/11/23 12:11:25;;;;;;;59.97;3.63;;;;;;;;;;5011831;28;20875;-76
2022/11/23 12:13:54;;;;;;;58.80;3.77;;;;;;;;;;5011697;28;20537;-76
2022/11/23 12:16:26;;;;;;;59.27;3.80;;;;;;;;;;5011885;28;20545;-76
2022/11/23 12:19:02;;;;;;;59.17;3.97;;;;;;;;;;5011060;28;21006;-76
2022/11/23 12:21:40;;;;;;;59.43;3.50;;;;;;;;;;5011655;28;20445;-76
2022/11/23 12:24:12;;;;;;;59.50;3.83;;;;;;;;;;5011603;28;20455;-77
2022/11/23 12:26:45;;;;;;;58.10;3.40;;;;;;;;;;5011996;28;20464;-77
2022/11/23 12:29:25;;;;;;;59.20;3.30;;;;;;;;;;5011153;28;20508;-76
2022/11/23 12:31:54;;;;;;;63.30;3.63;;;;;;;;;;5011566;28;20507;-76
2022/11/23 12:34:31;;;;;;;59.47;3.30;;;;;;;;;;5011638;28;20533;-77
2022/11/23 12:37:05;;;;;;;62.10;3.87;;;;;;;;;;5011820;28;20540;-77
2022/11/23 12:39:48;;;;;;;61.57;3.40;;;;;;;;;;5010840;28;20585;-76
2022/11/23 12:42:19;;;;;;;59.20;3.97;;;;;;;;;;5011712;28;20811;-77
2022/11/23 12:44:52;;;;;;;58.47;3.60;;;;;;;;;;5011748;28;21034;-77
2022/11/23 12:47:24;;;;;;;58.83;3.20;;;;;;;;;;5012466;28;20863;-77
2022/11/23 12:49:57;;;;;;;58.03;3.10;;;;;;;;;;5014607;28;20557;-76
2022/11/23 12:52:30;;;;;;;58.20;3.30;;;;;;;;;;5015339;28;20533;-76
2022/11/23 12:55:02;;;;;;;61.30;3.57;;;;;;;;;;5015463;28;20454;-77
2022/11/23 12:57:32;;;;;;;58.80;3.53;;;;;;;;;;5015366;28;21030;-77
2022/11/23 13:00:03;;;;;;;59.10;2.90;;;;;;;;;;5014927;28;20604;-77
2022/11/23 13:02:48;;;;;;;58.77;3.37;;;;;;;;;;5015075;28;20453;-76
2022/11/23 13:05:32;;;;;;;61.47;5.10;;;;;;;;;;5014836;28;20485;-76
2022/11/23 13:08:08;;;;;;;59.67;2.90;;;;;;;;;;5014528;28;20889;-77
2022/11/23 13:10:54;;;;;;;58.40;2.83;;;;;;;;;;5014170;28;20478;-77
2022/11/23 13:13:26;;;;;;;59.47;3.13;;;;;;;;;;5014582;28;20456;-77
2022/11/23 13:16:11;;;;;;;61.40;3.10;;;;;;;;;;5015307;28;20974;-77
2022/11/23 13:18:44;;;;;;;58.77;2.90;;;;;;;;;;5014149;28;20487;-77
2022/11/23 13:21:19;;;;;;;59.87;2.83;;;;;;;;;;5014991;28;20485;-77
2022/11/23 13:23:46;;;;;;;58.37;3.00;;;;;;;;;;5015123;28;20810;-76
2022/11/23 13:26:14;;;;;;;58.60;3.20;;;;;;;;;;5014701;28;20488;-77
2022/11/23 13:28:41;;;;;;;58.50;3.17;;;;;;;;;;5014041;28;20920;-77
2022/11/23 13:31:19;;;;;;;58.97;3.10;;;;;;;;;;5016134;28;20442;-77
2022/11/23 13:33:47;;;;;;;58.73;3.10;;;;;;;;;;5015652;28;20576;-77
2022/11/23 13:36:36;;;;;;;61.77;2.93;;;;;;;;;;5015646;28;20867;-77
2022/11/23 13:39:05;;;;;;;58.27;2.53;;;;;;;;;;5014850;28;20473;-77
2022/11/23 13:41:56;;;;;;;60.67;3.10;;;;;;;;;;5015919;28;20490;-77
2022/11/23 13:44:28;;;;;;;60.57;3.27;;;;;;;;;;5014969;28;20450;-77
2022/11/23 13:47:06;;;;;;;59.67;3.10;;;;;;;;;;5014632;28;21062;-77
2022/11/23 13:49:35;;;;;;;59.20;3.10;;;;;;;;;;5014151;28;20532;-77
2022/11/23 13:52:07;;;;;;;58.40;3.03;;;;;;;;;;5014565;28;20462;-77
2022/11/23 13:54:36;;;;;;;63.00;3.20;;;;;;;;;;5014660;28;20926;-77
2022/11/23 13:57:05;;;;;;;58.27;2.80;;;;;;;;;;5013950;28;20540;-77
2022/11/23 13:59:33;;;;;;;61.10;3.30;;;;;;;;;;5012935;28;20549;-77
2022/11/23 14:02:18;;;;;;;57.67;3.20;;;;;;;;;;5014146;28;20492;-77
2022/11/23 14:04:47;;;;;;;59.20;3.17;;;;;;;;;;5004456;28;20557;-77
2022/11/23 14:07:16;;;;;;;59.83;3.50;;;;;;;;;;5014125;28;20455;-77
2022/11/23 14:09:46;;;;;;;58.07;2.70;;;;;;;;;;5013230;28;20498;-77
2022/11/23 14:12:17;;;;;;;57.70;2.83;;;;;;;;;;5013530;28;20489;-77
2022/11/23 14:14:50;;;;;;;60.50;3.20;;;;;;;;;;5013671;28;20457;-77
2022/11/23 14:17:35;;;;;;;58.43;3.10;;;;;;;;;;5013713;28;20450;-77
2022/11/23 14:20:20;;;;;;;58.47;3.00;;;;;;;;;;5012777;28;20490;-76
2022/11/23 14:22:55;;;;;;;58.97;3.20;;;;;;;;;;5013278;28;20456;-77
2022/11/23 14:25:31;;;;;;;61.83;2.73;;;;;;;;;;5013560;28;20532;-77
2022/11/23 14:28:05;;;;;;;61.40;3.13;;;;;;;;;;5013189;28;20505;-77
2022/11/23 14:30:45;;;;;;;59.50;2.90;;;;;;;;;;5013143;28;20442;-77
2022/11/23 14:33:19;;;;;;;59.27;3.30;;;;;;;;;;5013110;28;20488;-77
2022/11/23 14:35:49;;;;;;;60.30;2.93;;;;;;;;;;5013418;28;20450;-77
2022/11/23 14:38:32;;;;;;;60.73;3.30;;;;;;;;;;5013026;28;20466;-77
2022/11/23 14:41:05;;;;;;;59.87;3.47;;;;;;;;;;5013073;28;20670;-77
2022/11/23 14:43:33;;;;;;;59.90;4.03;;;;;;;;;;5012924;28;20520;-76